sensor_id;sensor_type;location;lat;lon;timestamp;P1;durP1;ratioP1;P2;durP2;ratioP2
32200;SDS011;18701;45.588;5.288;2023-02-18T00:01:56;16.60;;;9.50;;
32200;SDS011;18701;45.588;5.288;2023-02-18T00:04:21;19.55;;;9.57;;
32200;SDS011;18701;45.588;5.288;2023-02-18T00:06:47;21.00;;;9.85;;
32200;SDS011;18701;45.588;5.288;2023-02-18T00:09:12;22.42;;;10.93;;
32200;SDS011;18701;45.588;5.288;2023-02-18T00:11:38;24.17;;;10.45;;
32200;SDS011;18701;45.588;5.288;2023-02-18T00:14:05;21.35;;;11.50;;
32200;SDS011;18701;45.588;5.288;2023-02-18T00:16:32;21.90;;;11.88;;
32200;SDS011;18701;45.588;5.288;2023-02-18T00:18:59;21.73;;;10.18;;
32200;SDS011;18701;45.588;5.288;2023-02-18T00:21:27;19.35;;;10.50;;
32200;SDS011;18701;45.588;5.288;2023-02-18T00:23:53;19.70;;;10.25;;
32200;SDS011;18701;45.588;5.288;2023-02-18T00:26:19;15.77;;;9.05;;
32200;SDS011;18701;45.588;5.288;2023-02-18T00:28:46;20.30;;;10.52;;
32200;SDS011;18701;45.588;5.288;2023-02-18T00:31:22;19.85;;;10.57;;
32200;SDS011;18701;45.588;5.288;2023-02-18T00:33:50;18.50;;;10.05;;
32200;SDS011;18701;45.588;5.288;2023-02-18T00:36:16;17.40;;;10.52;;
32200;SDS011;18701;45.588;5.288;2023-02-18T00:38:44;15.82;;;8.93;;
32200;SDS011;18701;45.588;5.288;2023-02-18T00:41:10;19.90;;;9.82;;
32200;SDS011;18701;45.588;5.288;2023-02-18T00:43:36;16.55;;;9.68;;
32200;SDS011;18701;45.588;5.288;2023-02-18T00:46:02;23.05;;;9.82;;
32200;SDS011;18701;45.588;5.288;2023-02-18T00:48:28;16.38;;;8.95;;
32200;SDS011;18701;45.588;5.288;2023-02-18T00:50:53;18.25;;;10.35;;
32200;SDS011;18701;45.588;5.288;2023-02-18T00:53:19;19.10;;;10.35;;
32200;SDS011;18701;45.588;5.288;2023-02-18T00:55:46;21.13;;;10.52;;
32200;SDS011;18701;45.588;5.288;2023-02-18T00:58:12;18.40;;;9.70;;
32200;SDS011;18701;45.588;5.288;2023-02-18T01:00:38;16.77;;;9.95;;
32200;SDS011;18701;45.588;5.288;2023-02-18T01:03:04;21.38;;;9.57;;
32200;SDS011;18701;45.588;5.288;2023-02-18T01:05:33;15.45;;;9.27;;
32200;SDS011;18701;45.588;5.288;2023-02-18T01:08:00;19.20;;;9.40;;
32200;SDS011;18701;45.588;5.288;2023-02-18T01:10:25;20.73;;;10.30;;
32200;SDS011;18701;45.588;5.288;2023-02-18T01:12:51;18.13;;;9.80;;
32200;SDS011;18701;45.588;5.288;2023-02-18T01:15:17;20.75;;;10.38;;
32200;SDS011;18701;45.588;5.288;2023-02-18T01:17:43;17.38;;;9.30;;
32200;SDS011;18701;45.588;5.288;2023-02-18T01:20:09;22.90;;;10.38;;
32200;SDS011;18701;45.588;5.288;2023-02-18T01:22:36;18.95;;;9.13;;
32200;SDS011;18701;45.588;5.288;2023-02-18T01:25:02;18.50;;;9.13;;
32200;SDS011;18701;45.588;5.288;2023-02-18T01:27:28;17.52;;;10.00;;
32200;SDS011;18701;45.588;5.288;2023-02-18T01:29:54;19.52;;;11.32;;
32200;SDS011;18701;45.588;5.288;2023-02-18T01:32:20;18.42;;;10.73;;
32200;SDS011;18701;45.588;5.288;2023-02-18T01:34:45;20.08;;;10.57;;
32200;SDS011;18701;45.588;5.288;2023-02-18T01:37:11;17.52;;;10.15;;
32200;SDS011;18701;45.588;5.288;2023-02-18T01:39:37;20.48;;;9.82;;
32200;SDS011;18701;45.588;5.288;2023-02-18T01:42:03;19.02;;;10.70;;
32200;SDS011;18701;45.588;5.288;2023-02-18T01:44:31;15.07;;;9.00;;
32200;SDS011;18701;45.588;5.288;2023-02-18T01:46:58;21.52;;;10.98;;
32200;SDS011;18701;45.588;5.288;2023-02-18T01:49:31;20.65;;;10.75;;
32200;SDS011;18701;45.588;5.288;2023-02-18T01:52:01;17.10;;;10.55;;
32200;SDS011;18701;45.588;5.288;2023-02-18T01:54:34;21.92;;;9.50;;
32200;SDS011;18701;45.588;5.288;2023-02-18T01:57:14;16.42;;;10.90;;
32200;SDS011;18701;45.588;5.288;2023-02-18T01:59:45;18.15;;;10.10;;
32200;SDS011;18701;45.588;5.288;2023-02-18T02:02:13;19.70;;;10.45;;
32200;SDS011;18701;45.588;5.288;2023-02-18T02:04:42;17.38;;;10.10;;
32200;SDS011;18701;45.588;5.288;2023-02-18T02:07:08;20.90;;;11.10;;
32200;SDS011;18701;45.588;5.288;2023-02-18T02:09:34;17.10;;;11.10;;
32200;SDS011;18701;45.588;5.288;2023-02-18T02:18:01;22.45;;;11.32;;
32200;SDS011;18701;45.588;5.288;2023-02-18T02:28:56;17.90;;;10.93;;
32200;SDS011;18701;45.588;5.288;2023-02-18T02:36:57;25.08;;;10.85;;
32200;SDS011;18701;45.588;5.288;2023-02-18T02:47:26;26.92;;;10.90;;
32200;SDS011;18701;45.588;5.288;2023-02-18T02:50:07;21.20;;;11.30;;
32200;SDS011;18701;45.588;5.288;2023-02-18T02:52:49;19.85;;;10.55;;
32200;SDS011;18701;45.588;5.288;2023-02-18T02:55:18;19.77;;;11.65;;
32200;SDS011;18701;45.588;5.288;2023-02-18T02:57:49;17.70;;;10.75;;
32200;SDS011;18701;45.588;5.288;2023-02-18T03:00:17;21.73;;;11.25;;
32200;SDS011;18701;45.588;5.288;2023-02-18T03:11:06;21.30;;;11.35;;
32200;SDS011;18701;45.588;5.288;2023-02-18T03:16:35;18.40;;;11.15;;
32200;SDS011;18701;45.588;5.288;2023-02-18T03:24:38;22.17;;;11.80;;
32200;SDS011;18701;45.588;5.288;2023-02-18T03:27:28;19.10;;;10.30;;
32200;SDS011;18701;45.588;5.288;2023-02-18T03:30:11;18.85;;;11.30;;
32200;SDS011;18701;45.588;5.288;2023-02-18T03:32:44;19.27;;;11.02;;
32200;SDS011;18701;45.588;5.288;2023-02-18T03:35:12;14.20;;;9.65;;
32200;SDS011;18701;45.588;5.288;2023-02-18T03:37:41;19.95;;;10.65;;
32200;SDS011;18701;45.588;5.288;2023-02-18T03:40:12;19.05;;;10.85;;
32200;SDS011;18701;45.588;5.288;2023-02-18T03:42:39;25.17;;;11.63;;
32200;SDS011;18701;45.588;5.288;2023-02-18T03:45:05;15.93;;;9.40;;
32200;SDS011;18701;45.588;5.288;2023-02-18T03:47:31;20.13;;;10.57;;
32200;SDS011;18701;45.588;5.288;2023-02-18T03:49:57;18.88;;;10.52;;
32200;SDS011;18701;45.588;5.288;2023-02-18T03:52:22;19.45;;;11.75;;
32200;SDS011;18701;45.588;5.288;2023-02-18T03:54:48;24.65;;;12.05;;
32200;SDS011;18701;45.588;5.288;2023-02-18T03:57:14;22.00;;;11.98;;
32200;SDS011;18701;45.588;5.288;2023-02-18T03:59:40;26.75;;;13.23;;
32200;SDS011;18701;45.588;5.288;2023-02-18T04:02:06;24.38;;;12.63;;
32200;SDS011;18701;45.588;5.288;2023-02-18T04:04:31;25.25;;;11.50;;
32200;SDS011;18701;45.588;5.288;2023-02-18T04:06:57;22.83;;;11.40;;
32200;SDS011;18701;45.588;5.288;2023-02-18T04:09:22;18.98;;;10.27;;
32200;SDS011;18701;45.588;5.288;2023-02-18T04:11:49;19.05;;;10.35;;
32200;SDS011;18701;45.588;5.288;2023-02-18T04:14:14;22.00;;;11.35;;
32200;SDS011;18701;45.588;5.288;2023-02-18T04:16:40;17.58;;;10.43;;
32200;SDS011;18701;45.588;5.288;2023-02-18T04:19:06;17.00;;;9.45;;
32200;SDS011;18701;45.588;5.288;2023-02-18T04:21:32;24.88;;;11.35;;
32200;SDS011;18701;45.588;5.288;2023-02-18T04:23:58;21.55;;;11.95;;
32200;SDS011;18701;45.588;5.288;2023-02-18T04:26:24;22.25;;;11.65;;
32200;SDS011;18701;45.588;5.288;2023-02-18T04:28:50;21.05;;;12.05;;
32200;SDS011;18701;45.588;5.288;2023-02-18T04:31:16;29.95;;;13.52;;
32200;SDS011;18701;45.588;5.288;2023-02-18T04:33:41;21.30;;;10.55;;
32200;SDS011;18701;45.588;5.288;2023-02-18T04:36:07;20.17;;;10.48;;
32200;SDS011;18701;45.588;5.288;2023-02-18T04:38:33;21.17;;;10.52;;
32200;SDS011;18701;45.588;5.288;2023-02-18T04:40:59;21.33;;;10.82;;
32200;SDS011;18701;45.588;5.288;2023-02-18T04:43:25;19.40;;;9.23;;
32200;SDS011;18701;45.588;5.288;2023-02-18T04:45:50;19.00;;;9.75;;
32200;SDS011;18701;45.588;5.288;2023-02-18T04:48:16;17.48;;;10.13;;
32200;SDS011;18701;45.588;5.288;2023-02-18T04:50:42;17.88;;;10.02;;
32200;SDS011;18701;45.588;5.288;2023-02-18T04:53:08;17.98;;;10.18;;
32200;SDS011;18701;45.588;5.288;2023-02-18T04:55:34;17.42;;;10.02;;
32200;SDS011;18701;45.588;5.288;2023-02-18T04:58:00;16.70;;;9.77;;
32200;SDS011;18701;45.588;5.288;2023-02-18T05:00:25;18.58;;;9.02;;
32200;SDS011;18701;45.588;5.288;2023-02-18T05:02:52;18.70;;;9.80;;
32200;SDS011;18701;45.588;5.288;2023-02-18T05:05:18;16.88;;;8.77;;
32200;SDS011;18701;45.588;5.288;2023-02-18T05:07:44;13.52;;;8.68;;
32200;SDS011;18701;45.588;5.288;2023-02-18T05:10:10;20.25;;;9.35;;
32200;SDS011;18701;45.588;5.288;2023-02-18T05:12:39;15.52;;;8.55;;
32200;SDS011;18701;45.588;5.288;2023-02-18T05:15:05;16.42;;;9.43;;
32200;SDS011;18701;45.588;5.288;2023-02-18T05:17:31;18.65;;;9.07;;
32200;SDS011;18701;45.588;5.288;2023-02-18T05:19:57;15.80;;;8.25;;
32200;SDS011;18701;45.588;5.288;2023-02-18T05:22:23;15.98;;;9.23;;
32200;SDS011;18701;45.588;5.288;2023-02-18T05:24:48;16.38;;;8.52;;
32200;SDS011;18701;45.588;5.288;2023-02-18T05:27:14;13.40;;;7.57;;
32200;SDS011;18701;45.588;5.288;2023-02-18T05:29:39;18.27;;;9.32;;
32200;SDS011;18701;45.588;5.288;2023-02-18T05:32:05;14.80;;;9.20;;
32200;SDS011;18701;45.588;5.288;2023-02-18T05:34:31;16.75;;;8.82;;
32200;SDS011;18701;45.588;5.288;2023-02-18T05:36:56;18.00;;;8.63;;
32200;SDS011;18701;45.588;5.288;2023-02-18T05:39:22;11.98;;;7.85;;
32200;SDS011;18701;45.588;5.288;2023-02-18T05:41:47;16.25;;;9.18;;
32200;SDS011;18701;45.588;5.288;2023-02-18T05:44:13;16.63;;;9.07;;
32200;SDS011;18701;45.588;5.288;2023-02-18T05:46:54;15.40;;;8.55;;
32200;SDS011;18701;45.588;5.288;2023-02-18T05:49:29;15.90;;;8.73;;
32200;SDS011;18701;45.588;5.288;2023-02-18T05:51:56;15.48;;;9.55;;
32200;SDS011;18701;45.588;5.288;2023-02-18T05:54:22;16.90;;;8.90;;
32200;SDS011;18701;45.588;5.288;2023-02-18T05:56:48;11.35;;;7.95;;
32200;SDS011;18701;45.588;5.288;2023-02-18T05:59:14;14.98;;;9.40;;
32200;SDS011;18701;45.588;5.288;2023-02-18T06:01:40;19.90;;;8.50;;
32200;SDS011;18701;45.588;5.288;2023-02-18T06:04:06;14.82;;;8.95;;
32200;SDS011;18701;45.588;5.288;2023-02-18T06:06:32;13.35;;;8.60;;
32200;SDS011;18701;45.588;5.288;2023-02-18T06:08:58;17.55;;;8.15;;
32200;SDS011;18701;45.588;5.288;2023-02-18T06:11:24;14.45;;;8.13;;
32200;SDS011;18701;45.588;5.288;2023-02-18T06:13:49;17.70;;;8.20;;
32200;SDS011;18701;45.588;5.288;2023-02-18T06:16:15;19.27;;;9.13;;
32200;SDS011;18701;45.588;5.288;2023-02-18T06:18:41;13.93;;;8.60;;
32200;SDS011;18701;45.588;5.288;2023-02-18T06:21:06;14.27;;;7.85;;
32200;SDS011;18701;45.588;5.288;2023-02-18T06:23:32;16.88;;;8.48;;
32200;SDS011;18701;45.588;5.288;2023-02-18T06:25:57;11.85;;;7.28;;
32200;SDS011;18701;45.588;5.288;2023-02-18T06:28:23;16.30;;;8.00;;
32200;SDS011;18701;45.588;5.288;2023-02-18T06:30:49;12.57;;;7.05;;
32200;SDS011;18701;45.588;5.288;2023-02-18T06:33:14;11.05;;;7.10;;
32200;SDS011;18701;45.588;5.288;2023-02-18T06:35:40;12.57;;;7.55;;
32200;SDS011;18701;45.588;5.288;2023-02-18T06:38:06;12.02;;;7.00;;
32200;SDS011;18701;45.588;5.288;2023-02-18T06:40:32;14.85;;;7.65;;
32200;SDS011;18701;45.588;5.288;2023-02-18T06:42:57;12.75;;;7.10;;
32200;SDS011;18701;45.588;5.288;2023-02-18T06:45:23;16.25;;;7.20;;
32200;SDS011;18701;45.588;5.288;2023-02-18T06:47:49;13.45;;;7.55;;
32200;SDS011;18701;45.588;5.288;2023-02-18T06:50:14;18.00;;;6.95;;
32200;SDS011;18701;45.588;5.288;2023-02-18T06:52:40;13.32;;;7.03;;
32200;SDS011;18701;45.588;5.288;2023-02-18T06:55:06;13.30;;;6.95;;
32200;SDS011;18701;45.588;5.288;2023-02-18T06:57:33;12.43;;;7.75;;
32200;SDS011;18701;45.588;5.288;2023-02-18T06:59:59;17.00;;;8.00;;
32200;SDS011;18701;45.588;5.288;2023-02-18T07:02:26;15.82;;;7.47;;
32200;SDS011;18701;45.588;5.288;2023-02-18T07:04:52;11.90;;;6.82;;
32200;SDS011;18701;45.588;5.288;2023-02-18T07:07:18;15.18;;;8.30;;
32200;SDS011;18701;45.588;5.288;2023-02-18T07:09:43;10.43;;;6.78;;
32200;SDS011;18701;45.588;5.288;2023-02-18T07:12:09;16.45;;;7.78;;
32200;SDS011;18701;45.588;5.288;2023-02-18T07:14:34;12.57;;;7.45;;
32200;SDS011;18701;45.588;5.288;2023-02-18T07:17:00;13.60;;;7.10;;
32200;SDS011;18701;45.588;5.288;2023-02-18T07:19:26;12.57;;;6.80;;
32200;SDS011;18701;45.588;5.288;2023-02-18T07:21:51;13.82;;;6.78;;
32200;SDS011;18701;45.588;5.288;2023-02-18T07:24:21;15.48;;;8.02;;
32200;SDS011;18701;45.588;5.288;2023-02-18T07:26:47;14.77;;;7.80;;
32200;SDS011;18701;45.588;5.288;2023-02-18T07:29:13;14.18;;;7.57;;
32200;SDS011;18701;45.588;5.288;2023-02-18T07:31:38;12.77;;;7.80;;
32200;SDS011;18701;45.588;5.288;2023-02-18T07:34:04;14.65;;;8.00;;
32200;SDS011;18701;45.588;5.288;2023-02-18T07:36:29;12.02;;;7.82;;
32200;SDS011;18701;45.588;5.288;2023-02-18T07:38:55;14.40;;;7.80;;
32200;SDS011;18701;45.588;5.288;2023-02-18T07:41:21;18.95;;;7.63;;
32200;SDS011;18701;45.588;5.288;2023-02-18T07:43:47;13.85;;;7.97;;
32200;SDS011;18701;45.588;5.288;2023-02-18T07:46:13;17.80;;;7.88;;
32200;SDS011;18701;45.588;5.288;2023-02-18T07:48:39;12.82;;;7.43;;
32200;SDS011;18701;45.588;5.288;2023-02-18T07:51:05;13.23;;;6.97;;
32200;SDS011;18701;45.588;5.288;2023-02-18T07:53:32;14.07;;;7.07;;
32200;SDS011;18701;45.588;5.288;2023-02-18T07:55:59;14.95;;;7.50;;
32200;SDS011;18701;45.588;5.288;2023-02-18T07:58:26;14.23;;;7.18;;
32200;SDS011;18701;45.588;5.288;2023-02-18T08:00:53;16.77;;;8.27;;
32200;SDS011;18701;45.588;5.288;2023-02-18T08:03:29;14.50;;;8.85;;
32200;SDS011;18701;45.588;5.288;2023-02-18T08:05:56;15.27;;;8.23;;
32200;SDS011;18701;45.588;5.288;2023-02-18T08:08:24;15.60;;;7.97;;
32200;SDS011;18701;45.588;5.288;2023-02-18T08:10:51;12.73;;;7.78;;
32200;SDS011;18701;45.588;5.288;2023-02-18T08:13:18;13.10;;;8.05;;
32200;SDS011;18701;45.588;5.288;2023-02-18T08:15:44;15.65;;;8.20;;
32200;SDS011;18701;45.588;5.288;2023-02-18T08:18:14;14.30;;;7.22;;
32200;SDS011;18701;45.588;5.288;2023-02-18T08:23:11;17.13;;;8.75;;
32200;SDS011;18701;45.588;5.288;2023-02-18T08:25:37;12.68;;;8.07;;
32200;SDS011;18701;45.588;5.288;2023-02-18T08:28:03;15.93;;;8.15;;
32200;SDS011;18701;45.588;5.288;2023-02-18T08:30:29;16.75;;;8.80;;
32200;SDS011;18701;45.588;5.288;2023-02-18T08:32:55;14.25;;;8.48;;
32200;SDS011;18701;45.588;5.288;2023-02-18T08:35:21;16.73;;;9.15;;
32200;SDS011;18701;45.588;5.288;2023-02-18T08:37:46;12.27;;;8.75;;
32200;SDS011;18701;45.588;5.288;2023-02-18T08:40:12;12.25;;;8.30;;
32200;SDS011;18701;45.588;5.288;2023-02-18T08:42:38;13.27;;;8.32;;
32200;SDS011;18701;45.588;5.288;2023-02-18T08:45:04;15.65;;;7.97;;
32200;SDS011;18701;45.588;5.288;2023-02-18T08:47:30;13.55;;;8.35;;
32200;SDS011;18701;45.588;5.288;2023-02-18T08:49:57;14.02;;;6.50;;
32200;SDS011;18701;45.588;5.288;2023-02-18T08:52:22;12.98;;;7.85;;
32200;SDS011;18701;45.588;5.288;2023-02-18T08:54:48;11.73;;;7.63;;
32200;SDS011;18701;45.588;5.288;2023-02-18T08:57:14;11.52;;;7.22;;
32200;SDS011;18701;45.588;5.288;2023-02-18T08:59:40;15.98;;;7.88;;
32200;SDS011;18701;45.588;5.288;2023-02-18T09:02:05;13.25;;;8.70;;
32200;SDS011;18701;45.588;5.288;2023-02-18T09:04:31;14.77;;;8.40;;
32200;SDS011;18701;45.588;5.288;2023-02-18T09:06:57;13.77;;;8.52;;
32200;SDS011;18701;45.588;5.288;2023-02-18T09:09:22;15.55;;;9.10;;
32200;SDS011;18701;45.588;5.288;2023-02-18T09:11:48;20.27;;;9.60;;
32200;SDS011;18701;45.588;5.288;2023-02-18T09:14:14;17.63;;;8.80;;
32200;SDS011;18701;45.588;5.288;2023-02-18T09:16:40;14.27;;;8.48;;
32200;SDS011;18701;45.588;5.288;2023-02-18T09:19:06;16.33;;;8.70;;
32200;SDS011;18701;45.588;5.288;2023-02-18T09:21:32;15.50;;;9.68;;
32200;SDS011;18701;45.588;5.288;2023-02-18T09:23:58;13.80;;;8.25;;
32200;SDS011;18701;45.588;5.288;2023-02-18T09:26:24;16.80;;;8.25;;
32200;SDS011;18701;45.588;5.288;2023-02-18T09:28:51;15.77;;;8.60;;
32200;SDS011;18701;45.588;5.288;2023-02-18T09:31:19;14.27;;;8.45;;
32200;SDS011;18701;45.588;5.288;2023-02-18T09:33:48;17.13;;;9.63;;
32200;SDS011;18701;45.588;5.288;2023-02-18T09:36:16;15.90;;;10.18;;
32200;SDS011;18701;45.588;5.288;2023-02-18T09:38:42;17.23;;;9.15;;
32200;SDS011;18701;45.588;5.288;2023-02-18T09:41:23;19.65;;;9.20;;
32200;SDS011;18701;45.588;5.288;2023-02-18T09:44:00;17.45;;;9.85;;
32200;SDS011;18701;45.588;5.288;2023-02-18T09:46:33;20.10;;;9.77;;
32200;SDS011;18701;45.588;5.288;2023-02-18T09:49:03;16.05;;;10.68;;
32200;SDS011;18701;45.588;5.288;2023-02-18T09:51:37;16.20;;;10.63;;
32200;SDS011;18701;45.588;5.288;2023-02-18T09:54:02;22.52;;;10.88;;
32200;SDS011;18701;45.588;5.288;2023-02-18T09:56:31;15.10;;;10.70;;
32200;SDS011;18701;45.588;5.288;2023-02-18T09:59:00;17.23;;;11.18;;
32200;SDS011;18701;45.588;5.288;2023-02-18T10:01:35;21.55;;;11.88;;
32200;SDS011;18701;45.588;5.288;2023-02-18T10:04:06;18.77;;;11.38;;
32200;SDS011;18701;45.588;5.288;2023-02-18T10:06:43;26.02;;;11.98;;
32200;SDS011;18701;45.588;5.288;2023-02-18T10:09:22;21.67;;;12.48;;
32200;SDS011;18701;45.588;5.288;2023-02-18T10:12:12;18.75;;;11.82;;
32200;SDS011;18701;45.588;5.288;2023-02-18T10:17:07;19.55;;;11.50;;
32200;SDS011;18701;45.588;5.288;2023-02-18T10:19:38;17.60;;;11.20;;
32200;SDS011;18701;45.588;5.288;2023-02-18T10:22:07;20.15;;;12.07;;
32200;SDS011;18701;45.588;5.288;2023-02-18T10:24:37;24.15;;;12.55;;
32200;SDS011;18701;45.588;5.288;2023-02-18T10:27:06;19.13;;;11.30;;
32200;SDS011;18701;45.588;5.288;2023-02-18T10:29:33;20.67;;;12.13;;
32200;SDS011;18701;45.588;5.288;2023-02-18T10:35:22;18.75;;;12.05;;
32200;SDS011;18701;45.588;5.288;2023-02-18T10:43:40;15.88;;;11.57;;
32200;SDS011;18701;45.588;5.288;2023-02-18T10:51:20;26.30;;;11.80;;
32200;SDS011;18701;45.588;5.288;2023-02-18T10:53:50;17.08;;;10.98;;
32200;SDS011;18701;45.588;5.288;2023-02-18T10:59:03;17.75;;;11.15;;
32200;SDS011;18701;45.588;5.288;2023-02-18T11:04:19;15.55;;;10.23;;
32200;SDS011;18701;45.588;5.288;2023-02-18T11:06:48;17.35;;;10.90;;
32200;SDS011;18701;45.588;5.288;2023-02-18T11:17:39;13.65;;;9.23;;
32200;SDS011;18701;45.588;5.288;2023-02-18T11:20:20;14.60;;;10.50;;
32200;SDS011;18701;45.588;5.288;2023-02-18T11:22:49;12.57;;;9.67;;
32200;SDS011;18701;45.588;5.288;2023-02-18T11:25:25;13.15;;;8.90;;
32200;SDS011;18701;45.588;5.288;2023-02-18T11:27:57;14.02;;;9.50;;
32200;SDS011;18701;45.588;5.288;2023-02-18T11:30:30;13.60;;;7.63;;
32200;SDS011;18701;45.588;5.288;2023-02-18T11:32:59;11.40;;;7.22;;
32200;SDS011;18701;45.588;5.288;2023-02-18T11:35:30;10.13;;;6.35;;
32200;SDS011;18701;45.588;5.288;2023-02-18T11:37:58;13.02;;;6.00;;
32200;SDS011;18701;45.588;5.288;2023-02-18T11:40:30;7.35;;;4.55;;
32200;SDS011;18701;45.588;5.288;2023-02-18T11:45:37;9.82;;;5.45;;
32200;SDS011;18701;45.588;5.288;2023-02-18T11:48:18;10.93;;;5.57;;
32200;SDS011;18701;45.588;5.288;2023-02-18T11:50:51;10.90;;;5.10;;
32200;SDS011;18701;45.588;5.288;2023-02-18T11:53:33;8.35;;;5.07;;
32200;SDS011;18701;45.588;5.288;2023-02-18T11:56:04;6.85;;;4.03;;
32200;SDS011;18701;45.588;5.288;2023-02-18T11:58:40;4.22;;;2.92;;
32200;SDS011;18701;45.588;5.288;2023-02-18T12:01:14;8.30;;;3.90;;
32200;SDS011;18701;45.588;5.288;2023-02-18T12:06:38;2.25;;;0.95;;
32200;SDS011;18701;45.588;5.288;2023-02-18T12:09:26;5.95;;;1.73;;
32200;SDS011;18701;45.588;5.288;2023-02-18T12:12:00;3.60;;;1.20;;
32200;SDS011;18701;45.588;5.288;2023-02-18T12:14:30;4.05;;;0.90;;
32200;SDS011;18701;45.588;5.288;2023-02-18T12:22:41;0.70;;;0.20;;
32200;SDS011;18701;45.588;5.288;2023-02-18T12:33:49;0.85;;;0.40;;
32200;SDS011;18701;45.588;5.288;2023-02-18T12:39:10;3.22;;;0.85;;
32200;SDS011;18701;45.588;5.288;2023-02-18T12:41:51;3.05;;;1.13;;
32200;SDS011;18701;45.588;5.288;2023-02-18T12:47:18;1.98;;;0.70;;
32200;SDS011;18701;45.588;5.288;2023-02-18T12:59:10;1.42;;;0.47;;
32200;SDS011;18701;45.588;5.288;2023-02-18T13:07:11;1.13;;;0.60;;
32200;SDS011;18701;45.588;5.288;2023-02-18T13:12:16;1.20;;;0.65;;
32200;SDS011;18701;45.588;5.288;2023-02-18T13:17:23;1.00;;;0.55;;
32200;SDS011;18701;45.588;5.288;2023-02-18T13:19:57;2.28;;;0.60;;
32200;SDS011;18701;45.588;5.288;2023-02-18T13:22:28;2.95;;;0.75;;
32200;SDS011;18701;45.588;5.288;2023-02-18T13:24:55;0.80;;;0.40;;
32200;SDS011;18701;45.588;5.288;2023-02-18T13:27:38;1.98;;;0.40;;
32200;SDS011;18701;45.588;5.288;2023-02-18T13:30:55;2.10;;;0.65;;
32200;SDS011;18701;45.588;5.288;2023-02-18T13:38:57;0.85;;;0.30;;
32200;SDS011;18701;45.588;5.288;2023-02-18T13:41:40;0.63;;;0.30;;
32200;SDS011;18701;45.588;5.288;2023-02-18T13:46:47;0.98;;;0.40;;
32200;SDS011;18701;45.588;5.288;2023-02-18T13:49:30;0.75;;;0.20;;
32200;SDS011;18701;45.588;5.288;2023-02-18T13:51:58;2.55;;;0.40;;
32200;SDS011;18701;45.588;5.288;2023-02-18T13:54:44;1.83;;;0.35;;
32200;SDS011;18701;45.588;5.288;2023-02-18T13:57:16;1.80;;;0.40;;
32200;SDS011;18701;45.588;5.288;2023-02-18T13:59:48;1.38;;;0.20;;
32200;SDS011;18701;45.588;5.288;2023-02-18T14:12:59;1.35;;;0.43;;
32200;SDS011;18701;45.588;5.288;2023-02-18T14:31:00;2.22;;;0.30;;
32200;SDS011;18701;45.588;5.288;2023-02-18T14:33:26;2.10;;;0.20;;
32200;SDS011;18701;45.588;5.288;2023-02-18T14:35:56;0.50;;;0.20;;
32200;SDS011;18701;45.588;5.288;2023-02-18T14:47:19;1.95;;;0.40;;
32200;SDS011;18701;45.588;5.288;2023-02-18T14:49:59;4.63;;;0.45;;
32200;SDS011;18701;45.588;5.288;2023-02-18T14:52:32;6.13;;;1.95;;
32200;SDS011;18701;45.588;5.288;2023-02-18T14:55:03;0.90;;;0.20;;
32200;SDS011;18701;45.588;5.288;2023-02-18T14:57:43;1.17;;;0.20;;
32200;SDS011;18701;45.588;5.288;2023-02-18T15:00:14;0.82;;;0.20;;
32200;SDS011;18701;45.588;5.288;2023-02-18T15:03:00;0.63;;;0.20;;
32200;SDS011;18701;45.588;5.288;2023-02-18T15:05:30;0.30;;;0.10;;
32200;SDS011;18701;45.588;5.288;2023-02-18T15:10:27;0.30;;;0.20;;
32200;SDS011;18701;45.588;5.288;2023-02-18T15:13:01;0.40;;;0.20;;
32200;SDS011;18701;45.588;5.288;2023-02-18T15:15:29;1.27;;;0.30;;
32200;SDS011;18701;45.588;5.288;2023-02-18T15:17:57;0.47;;;0.20;;
32200;SDS011;18701;45.588;5.288;2023-02-18T15:20:23;0.30;;;0.10;;
32200;SDS011;18701;45.588;5.288;2023-02-18T15:22:49;0.73;;;0.20;;
32200;SDS011;18701;45.588;5.288;2023-02-18T15:25:14;0.45;;;0.13;;
32200;SDS011;18701;45.588;5.288;2023-02-18T15:27:42;2.05;;;0.20;;
32200;SDS011;18701;45.588;5.288;2023-02-18T15:30:14;0.70;;;0.32;;
32200;SDS011;18701;45.588;5.288;2023-02-18T15:32:44;0.40;;;0.15;;
32200;SDS011;18701;45.588;5.288;2023-02-18T15:35:18;1.90;;;0.22;;
32200;SDS011;18701;45.588;5.288;2023-02-18T15:37:50;2.65;;;0.40;;
32200;SDS011;18701;45.588;5.288;2023-02-18T15:40:18;0.40;;;0.13;;
32200;SDS011;18701;45.588;5.288;2023-02-18T15:42:46;0.55;;;0.10;;
32200;SDS011;18701;45.588;5.288;2023-02-18T15:45:16;2.83;;;0.20;;
32200;SDS011;18701;45.588;5.288;2023-02-18T15:47:46;1.08;;;0.30;;
32200;SDS011;18701;45.588;5.288;2023-02-18T15:50:25;1.27;;;0.30;;
32200;SDS011;18701;45.588;5.288;2023-02-18T15:53:08;0.90;;;0.28;;
32200;SDS011;18701;45.588;5.288;2023-02-18T15:55:40;0.75;;;0.20;;
32200;SDS011;18701;45.588;5.288;2023-02-18T15:58:10;0.60;;;0.22;;
32200;SDS011;18701;45.588;5.288;2023-02-18T16:00:47;0.65;;;0.30;;
32200;SDS011;18701;45.588;5.288;2023-02-18T16:05:50;0.93;;;0.40;;
32200;SDS011;18701;45.588;5.288;2023-02-18T16:08:31;0.70;;;0.30;;
32200;SDS011;18701;45.588;5.288;2023-02-18T16:11:00;3.40;;;0.30;;
32200;SDS011;18701;45.588;5.288;2023-02-18T16:13:31;0.60;;;0.30;;
32200;SDS011;18701;45.588;5.288;2023-02-18T16:15:59;0.85;;;0.32;;
32200;SDS011;18701;45.588;5.288;2023-02-18T16:18:29;1.60;;;0.50;;
32200;SDS011;18701;45.588;5.288;2023-02-18T16:24:20;0.93;;;0.25;;
32200;SDS011;18701;45.588;5.288;2023-02-18T16:26:48;0.60;;;0.30;;
32200;SDS011;18701;45.588;5.288;2023-02-18T16:29:34;0.85;;;0.30;;
32200;SDS011;18701;45.588;5.288;2023-02-18T16:32:04;3.17;;;0.20;;
32200;SDS011;18701;45.588;5.288;2023-02-18T16:34:29;0.52;;;0.20;;
32200;SDS011;18701;45.588;5.288;2023-02-18T16:36:55;0.60;;;0.28;;
32200;SDS011;18701;45.588;5.288;2023-02-18T16:39:39;1.27;;;0.20;;
32200;SDS011;18701;45.588;5.288;2023-02-18T16:42:09;1.42;;;0.30;;
32200;SDS011;18701;45.588;5.288;2023-02-18T16:44:35;1.33;;;0.40;;
32200;SDS011;18701;45.588;5.288;2023-02-18T16:47:01;1.48;;;0.47;;
32200;SDS011;18701;45.588;5.288;2023-02-18T16:49:27;3.13;;;0.40;;
32200;SDS011;18701;45.588;5.288;2023-02-18T16:51:53;0.95;;;0.38;;
32200;SDS011;18701;45.588;5.288;2023-02-18T16:54:19;1.25;;;0.32;;
32200;SDS011;18701;45.588;5.288;2023-02-18T16:56:45;0.80;;;0.50;;
32200;SDS011;18701;45.588;5.288;2023-02-18T16:59:10;3.58;;;0.52;;
32200;SDS011;18701;45.588;5.288;2023-02-18T17:01:40;1.48;;;0.70;;
32200;SDS011;18701;45.588;5.288;2023-02-18T17:04:12;0.95;;;0.40;;
32200;SDS011;18701;45.588;5.288;2023-02-18T17:06:39;1.88;;;0.70;;
32200;SDS011;18701;45.588;5.288;2023-02-18T17:09:24;1.52;;;0.88;;
32200;SDS011;18701;45.588;5.288;2023-02-18T17:11:52;3.30;;;1.17;;
32200;SDS011;18701;45.588;5.288;2023-02-18T17:14:19;5.75;;;2.05;;
32200;SDS011;18701;45.588;5.288;2023-02-18T17:16:46;3.40;;;2.38;;
32200;SDS011;18701;45.588;5.288;2023-02-18T17:19:14;6.55;;;2.42;;
32200;SDS011;18701;45.588;5.288;2023-02-18T17:21:40;5.50;;;2.03;;
32200;SDS011;18701;45.588;5.288;2023-02-18T17:24:08;3.17;;;1.70;;
32200;SDS011;18701;45.588;5.288;2023-02-18T17:26:39;4.22;;;2.50;;
32200;SDS011;18701;45.588;5.288;2023-02-18T17:29:05;6.75;;;2.67;;
32200;SDS011;18701;45.588;5.288;2023-02-18T17:31:37;4.18;;;2.42;;
32200;SDS011;18701;45.588;5.288;2023-02-18T17:34:08;3.35;;;1.70;;
32200;SDS011;18701;45.588;5.288;2023-02-18T17:36:38;3.00;;;0.90;;
32200;SDS011;18701;45.588;5.288;2023-02-18T17:39:12;3.33;;;0.90;;
32200;SDS011;18701;45.588;5.288;2023-02-18T17:41:39;2.42;;;0.90;;